SANE/SDE METAR and TAF weather

Enter ICAO airport designator
Station Type Date Time Source
SANE METAR 2021/01/12 01:20 UTC NOAA

SANE 120120Z 18012KT 9999 SCT007 BKN015 FEW050CB 26/20 Q1007


Station Type Date Time Source
SANE Decoded METAR 2021/01/12 01:20 UTC NOAA

Santiago Del Estero Aero., Argentina (SANE) 27-46S 064-18W 199M
Jan 11, 2021 - 08:20 PM EST / 2021.01.12 0120 UTC
Wind: from the S (180 degrees) at 14 MPH (12 KT):0
Visibility: greater than 7 mile(s):0
Sky conditions: mostly cloudy
Weather: Cumulonimbus clouds observed
Temperature: 78 F (26 C)
Dew Point: 68 F (20 C)
Relative Humidity: 69%
Pressure (altimeter): 29.74 in. Hg (1007 hPa)
ob: SANE 120120Z 18012KT 9999 SCT007 BKN015 FEW050CB 26/20 Q1007
cycle: 1

Station Type Date Time Source
SANE TAF 2020/12/13 18:21 UTC NOAA

TAF TAF SANE 131700Z 1318/1418 18015G30KT 5000 TSSHRA BKN025 FEW050CB TX32/1318Z TN22/1410Z
BECMG 1321/1400 14010KT 9999 BKN030

Example: see airport list